createdAt,value
2018-01-18T00:02:15.493Z,8.33
2018-01-18T00:04:43.028Z,4.67
2018-01-18T00:07:11.279Z,4.40
2018-01-18T00:09:38.903Z,5.53
2018-01-18T00:12:06.435Z,4.97
2018-01-18T00:14:34.018Z,6.13
2018-01-18T00:17:01.555Z,9.70
2018-01-18T00:19:29.090Z,5.50
2018-01-18T00:21:56.622Z,7.07
2018-01-18T00:24:24.170Z,4.83
2018-01-18T00:26:51.701Z,8.83
2018-01-18T00:29:20.198Z,9.07
2018-01-18T00:31:47.737Z,10.63
2018-01-18T00:34:15.271Z,8.63
2018-01-18T00:36:42.808Z,13.17
2018-01-18T00:39:10.350Z,14.47
2018-01-18T00:41:38.811Z,6.40
2018-01-18T00:44:07.202Z,10.03
2018-01-18T00:46:34.773Z,7.77
2018-01-18T00:49:02.306Z,10.37
2018-01-18T00:51:29.889Z,5.60
2018-01-18T00:53:57.421Z,6.73
2018-01-18T00:56:24.998Z,10.53
2018-01-18T00:58:52.530Z,14.73
2018-01-18T01:01:20.071Z,18.47
2018-01-18T01:03:48.372Z,8.13
2018-01-18T01:06:15.910Z,8.90
2018-01-18T01:08:44.231Z,10.53
2018-01-18T01:11:12.024Z,8.50
2018-01-18T01:13:39.543Z,7.10
2018-01-18T01:16:07.966Z,8.20
2018-01-18T01:18:36.550Z,4.90
2018-01-18T01:21:05.088Z,12.83
2018-01-18T01:23:33.419Z,11.83
2018-01-18T01:26:01.912Z,14.23
2018-01-18T01:28:30.328Z,14.47
2018-01-18T01:30:58.621Z,12.87
2018-01-18T01:33:26.160Z,10.37
2018-01-18T01:35:54.376Z,6.33
2018-01-18T01:38:21.908Z,12.20
2018-01-18T01:40:50.230Z,12.83
2018-01-18T01:43:17.758Z,9.10
2018-01-18T01:45:45.290Z,10.93
2018-01-18T01:48:12.866Z,14.37
2018-01-18T01:50:41.331Z,9.20
2018-01-18T01:53:08.898Z,8.47
2018-01-18T01:55:37.258Z,9.57
2018-01-18T01:58:04.830Z,15.47
2018-01-18T02:00:32.359Z,6.80
2018-01-18T02:02:59.990Z,8.57
2018-01-18T02:05:28.442Z,15.70
2018-01-18T02:07:55.971Z,7.70
2018-01-18T02:10:24.427Z,11.10
2018-01-18T02:12:51.955Z,7.90
2018-01-18T02:15:19.485Z,8.80
2018-01-18T02:17:47.914Z,9.47
2018-01-18T02:20:16.346Z,16.27
2018-01-18T02:22:43.882Z,10.10
2018-01-18T02:25:11.454Z,11.27
2018-01-18T02:27:39.027Z,11.30
2018-01-18T02:30:06.606Z,23.77
2018-01-18T02:32:34.133Z,9.50
2018-01-18T02:35:01.673Z,10.37
2018-01-18T02:37:29.328Z,15.93
2018-01-18T02:39:56.862Z,15.00
2018-01-18T02:42:24.397Z,13.00
2018-01-18T02:44:51.966Z,9.63
2018-01-18T02:47:19.495Z,15.40
2018-01-18T02:49:47.945Z,7.33
2018-01-18T02:52:15.518Z,7.93
2018-01-18T02:54:43.055Z,11.57
2018-01-18T02:57:10.590Z,7.43
2018-01-18T02:59:38.128Z,16.50
2018-01-18T03:02:05.661Z,11.87
2018-01-18T03:04:34.029Z,13.00
2018-01-18T03:07:01.569Z,12.27
2018-01-18T03:09:29.891Z,15.87
2018-01-18T03:11:57.434Z,21.40
2018-01-18T03:14:25.879Z,14.70
2018-01-18T03:16:54.438Z,15.90
2018-01-18T03:19:22.049Z,11.67
2018-01-18T03:21:49.597Z,14.63
2018-01-18T03:24:17.169Z,13.30
2018-01-18T03:26:44.706Z,14.57
2018-01-18T03:29:12.363Z,12.93
2018-01-18T03:31:39.901Z,9.07
2018-01-18T03:34:07.440Z,11.53
2018-01-18T03:36:34.982Z,19.40
2018-01-18T03:39:02.513Z,14.07
2018-01-18T03:41:30.044Z,11.17
2018-01-18T03:43:57.573Z,9.77
2018-01-18T03:46:25.109Z,15.03
2018-01-18T03:48:52.641Z,11.03
2018-01-18T03:51:20.958Z,13.57
2018-01-18T03:53:48.490Z,10.03
2018-01-18T03:56:16.027Z,7.03
2018-01-18T03:58:43.563Z,8.93
2018-01-18T04:01:11.098Z,14.67
2018-01-18T04:03:38.726Z,10.00
2018-01-18T04:06:06.261Z,10.33
2018-01-18T04:08:33.841Z,10.23
2018-01-18T04:11:01.422Z,11.10
2018-01-18T04:13:28.956Z,19.23
2018-01-18T04:15:56.498Z,14.80
2018-01-18T04:18:24.031Z,14.57
2018-01-18T04:20:51.568Z,7.67
2018-01-18T04:23:20.058Z,13.53
2018-01-18T04:25:48.516Z,8.47
2018-01-18T04:28:16.078Z,11.57
2018-01-18T04:30:43.609Z,10.17
2018-01-18T04:33:11.146Z,8.40
2018-01-18T04:35:38.729Z,16.30
2018-01-18T04:38:07.162Z,7.80
2018-01-18T04:40:35.396Z,8.30
2018-01-18T04:43:02.965Z,10.20
2018-01-18T04:45:30.497Z,10.63
2018-01-18T04:47:58.039Z,17.17
2018-01-18T04:50:25.573Z,9.10
2018-01-18T04:52:53.916Z,16.23
2018-01-18T04:55:21.460Z,13.13
2018-01-18T04:57:49.004Z,12.10
2018-01-18T05:00:16.550Z,11.30
2018-01-18T05:02:44.118Z,11.27
2018-01-18T05:05:11.654Z,16.40
2018-01-18T05:07:40.127Z,9.27
2018-01-18T05:10:08.517Z,11.40
2018-01-18T05:12:36.902Z,14.10
2018-01-18T05:15:04.435Z,10.63
2018-01-18T05:17:31.970Z,13.10
2018-01-18T05:19:59.507Z,16.63
2018-01-18T05:22:27.050Z,11.97
2018-01-18T05:24:54.619Z,15.00
2018-01-18T05:27:23.046Z,18.47
2018-01-18T05:29:50.635Z,14.17
2018-01-18T05:32:18.955Z,8.40
2018-01-18T05:34:46.487Z,9.17
2018-01-18T05:37:14.918Z,15.10
2018-01-18T05:39:43.367Z,12.23
2018-01-18T05:42:11.593Z,17.37
2018-01-18T05:44:39.131Z,16.30
2018-01-18T05:47:07.122Z,8.60
2018-01-18T05:49:34.664Z,15.50
2018-01-18T05:52:02.238Z,13.33
2018-01-18T05:54:29.781Z,11.30
2018-01-18T05:56:57.345Z,25.47
2018-01-18T05:59:24.927Z,14.50
2018-01-18T06:01:53.283Z,13.03
2018-01-18T06:04:21.657Z,12.40
2018-01-18T06:06:49.201Z,14.30
2018-01-18T06:09:16.729Z,8.30
2018-01-18T06:11:44.261Z,13.13
2018-01-18T06:14:11.852Z,11.93
2018-01-18T06:16:39.402Z,15.10
2018-01-18T06:19:07.988Z,14.40
2018-01-18T06:21:35.528Z,13.80
2018-01-18T06:24:03.062Z,11.73
2018-01-18T06:26:30.600Z,15.90
2018-01-18T06:28:58.154Z,12.20
2018-01-18T06:31:25.686Z,13.23
2018-01-18T06:33:53.214Z,9.10
2018-01-18T06:36:20.758Z,10.23
2018-01-18T06:38:48.400Z,19.43
2018-01-18T06:41:15.942Z,13.83
2018-01-18T06:43:43.482Z,20.37
2018-01-18T06:46:12.025Z,16.77
2018-01-18T06:48:39.563Z,14.57
2018-01-18T06:51:07.107Z,19.50
2018-01-18T06:53:34.642Z,21.70
2018-01-18T06:56:02.253Z,16.03
2018-01-18T06:58:29.793Z,12.97
2018-01-18T07:00:58.171Z,19.87
2018-01-18T07:03:25.722Z,11.53
2018-01-18T07:05:53.262Z,12.27
2018-01-18T07:08:20.925Z,13.57
2018-01-18T07:10:48.465Z,21.93
2018-01-18T07:13:15.999Z,7.80
2018-01-18T07:15:43.540Z,16.77
2018-01-18T07:18:11.862Z,10.70
2018-01-18T07:20:40.134Z,13.53
2018-01-18T07:23:08.458Z,9.60
2018-01-18T07:25:35.999Z,17.80
2018-01-18T07:28:03.536Z,14.07
2018-01-18T07:30:31.071Z,9.43
2018-01-18T07:32:58.610Z,20.57
2018-01-18T07:35:26.967Z,12.30
2018-01-18T07:37:54.507Z,14.57
2018-01-18T07:40:22.098Z,7.27
2018-01-18T07:42:50.826Z,13.50
2018-01-18T07:45:18.358Z,14.60
2018-01-18T07:47:46.374Z,14.97
2018-01-18T07:50:13.911Z,10.57
2018-01-18T07:52:42.250Z,11.27
2018-01-18T07:55:09.787Z,13.73
2018-01-18T07:57:38.151Z,11.93
2018-01-18T08:00:05.726Z,13.13
2018-01-18T08:02:33.945Z,13.60
2018-01-18T08:05:02.598Z,22.77
2018-01-18T08:07:30.970Z,11.90
2018-01-18T08:09:59.402Z,14.57
2018-01-18T08:12:27.854Z,16.43
2018-01-18T08:14:56.330Z,9.50
2018-01-18T08:17:24.705Z,10.53
2018-01-18T08:19:52.289Z,6.97
2018-01-18T08:22:20.742Z,10.33
2018-01-18T08:24:49.191Z,10.93
2018-01-18T08:27:17.517Z,15.60
2018-01-18T08:29:45.877Z,16.63
2018-01-18T08:32:14.533Z,11.73
2018-01-18T08:34:42.094Z,9.10
2018-01-18T08:37:09.630Z,14.00
2018-01-18T08:39:38.237Z,5.40
2018-01-18T08:42:05.804Z,10.60
2018-01-18T08:44:34.282Z,9.20
2018-01-18T08:47:03.049Z,6.23
2018-01-18T08:49:31.461Z,9.63
2018-01-18T08:51:58.998Z,14.50
2018-01-18T08:54:26.538Z,8.37
2018-01-18T08:56:54.082Z,15.57
2018-01-18T08:59:22.562Z,22.50
2018-01-18T09:01:50.894Z,6.20
2018-01-18T09:04:19.334Z,11.10
2018-01-18T09:06:46.938Z,12.23
2018-01-18T09:09:14.477Z,16.07
2018-01-18T09:11:42.058Z,11.20
2018-01-18T09:14:10.495Z,9.93
2018-01-18T09:16:38.818Z,8.50
2018-01-18T09:19:07.162Z,4.40
2018-01-18T09:21:35.603Z,3.73
2018-01-18T09:24:03.882Z,15.33
2018-01-18T09:26:31.426Z,10.90
2018-01-18T09:28:59.776Z,12.73
2018-01-18T09:31:28.094Z,6.90
2018-01-18T09:33:56.450Z,9.20
2018-01-18T09:36:24.803Z,11.00
2018-01-18T09:38:53.245Z,11.63
2018-01-18T09:41:20.821Z,4.43
2018-01-18T09:43:49.132Z,9.07
2018-01-18T09:46:16.675Z,10.53
2018-01-18T09:48:44.224Z,13.77
2018-01-18T09:51:12.662Z,8.10
2018-01-18T09:53:40.190Z,10.30
2018-01-18T09:56:07.730Z,3.23
2018-01-18T09:58:35.261Z,8.20
2018-01-18T10:01:02.842Z,5.90
2018-01-18T10:03:30.379Z,6.43
2018-01-18T10:05:58.019Z,4.17
2018-01-18T10:08:26.330Z,7.57
2018-01-18T10:10:53.971Z,7.07
2018-01-18T10:13:22.544Z,11.43
2018-01-18T10:15:50.791Z,5.43
2018-01-18T10:18:19.138Z,5.90
2018-01-18T10:20:46.689Z,6.97
2018-01-18T10:23:14.230Z,4.43
2018-01-18T10:25:41.765Z,3.53
2018-01-18T10:28:09.332Z,2.73
2018-01-18T10:30:37.668Z,2.20
2018-01-18T10:33:06.079Z,3.67
2018-01-18T10:35:33.657Z,5.63
2018-01-18T10:38:01.901Z,4.33
2018-01-18T10:40:30.293Z,4.77
2018-01-18T10:42:58.625Z,5.63
2018-01-18T10:45:26.969Z,3.10
2018-01-18T10:47:54.534Z,2.23
2018-01-18T10:50:22.873Z,1.30
2018-01-18T10:52:51.402Z,3.53
2018-01-18T10:55:18.933Z,3.60
2018-01-18T10:57:46.526Z,2.97
2018-01-18T11:00:14.099Z,3.75
2018-01-18T11:02:41.738Z,2.60
2018-01-18T11:05:09.276Z,4.60
2018-01-18T11:07:36.814Z,1.47
2018-01-18T11:10:04.563Z,3.13
2018-01-18T11:12:32.254Z,2.90
2018-01-18T11:14:59.982Z,1.97
2018-01-18T11:17:28.535Z,3.43
2018-01-18T11:19:57.093Z,4.43
2018-01-18T11:22:25.566Z,3.33
2018-01-18T11:24:53.164Z,1.70
2018-01-18T11:27:20.769Z,4.50
2018-01-18T11:29:48.467Z,2.10
2018-01-18T11:32:17.556Z,2.80
2018-01-18T11:34:45.357Z,1.83
2018-01-18T11:37:13.676Z,4.00
2018-01-18T11:39:42.122Z,2.53
2018-01-18T11:42:10.595Z,3.53
2018-01-18T11:44:39.066Z,3.33
2018-01-18T11:47:07.404Z,2.93
2018-01-18T11:49:35.842Z,2.23
2018-01-18T11:52:03.376Z,2.13
2018-01-18T11:54:31.746Z,2.10
2018-01-18T11:57:00.098Z,8.33
2018-01-18T11:59:29.050Z,5.43
2018-01-18T12:01:56.578Z,4.50
2018-01-18T12:04:24.157Z,5.53
2018-01-18T12:06:51.725Z,7.60
2018-01-18T12:09:19.255Z,2.90
2018-01-18T12:11:47.695Z,2.40
2018-01-18T12:14:24.625Z,3.80
2018-01-18T12:16:52.217Z,4.80
2018-01-18T12:19:20.594Z,4.60
2018-01-18T12:21:49.041Z,5.27
2018-01-18T12:24:16.642Z,6.83
2018-01-18T12:26:44.202Z,2.43
2018-01-18T12:29:11.769Z,4.23
2018-01-18T12:31:39.303Z,3.20
2018-01-18T12:34:06.878Z,5.27
2018-01-18T12:36:35.122Z,7.47
2018-01-18T12:39:03.639Z,3.07
2018-01-18T12:41:32.122Z,3.93
2018-01-18T12:43:59.659Z,5.00
2018-01-18T12:46:28.106Z,3.90
2018-01-18T12:48:56.518Z,3.80
2018-01-18T12:51:26.742Z,5.53
2018-01-18T12:53:55.888Z,3.37
2018-01-18T12:56:23.468Z,2.50
2018-01-18T12:58:51.050Z,4.33
2018-01-18T13:01:18.587Z,8.17
2018-01-18T13:03:46.206Z,3.37
2018-01-18T13:06:13.743Z,5.63
2018-01-18T13:08:41.274Z,2.97
2018-01-18T13:11:08.886Z,5.03
2018-01-18T13:13:36.445Z,3.07
2018-01-18T13:16:03.981Z,1.60
2018-01-18T13:18:31.510Z,2.23
2018-01-18T13:20:59.128Z,3.07
2018-01-18T13:23:26.657Z,1.97
2018-01-18T13:25:54.186Z,1.43
2018-01-18T13:28:21.718Z,1.03
2018-01-18T13:30:49.254Z,2.80
2018-01-18T13:33:17.724Z,1.50
2018-01-18T13:35:45.327Z,1.43
2018-01-18T13:38:12.869Z,1.27
2018-01-18T13:40:40.399Z,1.50
2018-01-18T13:43:07.934Z,1.40
2018-01-18T13:45:35.482Z,3.53
2018-01-18T13:48:03.061Z,3.80
2018-01-18T13:50:30.598Z,0.80
2018-01-18T13:52:58.234Z,2.70
2018-01-18T13:55:25.788Z,1.97
2018-01-18T13:57:56.589Z,2.07
2018-01-18T14:00:25.038Z,1.20
2018-01-18T14:02:53.623Z,2.80
2018-01-18T14:05:21.241Z,3.40
2018-01-18T14:07:48.794Z,1.17
2018-01-18T14:10:16.362Z,2.00
2018-01-18T14:12:43.941Z,1.93
2018-01-18T14:15:11.476Z,2.10
2018-01-18T14:17:39.041Z,2.23
2018-01-18T14:20:06.577Z,3.00
2018-01-18T14:22:34.368Z,2.13
2018-01-18T14:25:03.018Z,2.50
2018-01-18T14:27:30.584Z,4.80
2018-01-18T14:29:58.380Z,2.27
2018-01-18T14:32:25.963Z,2.90
2018-01-18T14:34:54.350Z,2.80
2018-01-18T14:37:21.971Z,2.10
2018-01-18T14:39:49.673Z,4.57
2018-01-18T14:42:17.985Z,2.57
2018-01-18T14:44:46.429Z,1.80
2018-01-18T14:47:14.922Z,3.10
2018-01-18T14:49:42.586Z,1.50
2018-01-18T14:52:10.123Z,1.67
2018-01-18T14:54:37.694Z,6.60
2018-01-18T14:57:05.235Z,4.13
2018-01-18T14:59:32.780Z,8.20
2018-01-18T15:02:00.306Z,4.07
2018-01-18T15:04:28.853Z,2.70
2018-01-18T15:06:56.422Z,1.97
2018-01-18T15:09:24.770Z,4.97
2018-01-18T15:11:52.368Z,5.60
2018-01-18T15:14:19.974Z,5.00
2018-01-18T15:16:47.582Z,2.93
2018-01-18T15:19:15.140Z,3.07
2018-01-18T15:21:42.809Z,2.80
2018-01-18T15:24:10.341Z,1.17
2018-01-18T15:26:38.079Z,1.73
2018-01-18T15:29:05.658Z,0.83
2018-01-18T15:31:33.203Z,2.93
2018-01-18T15:34:00.816Z,1.20
2018-01-18T15:36:28.454Z,1.17
2018-01-18T15:38:56.026Z,2.03
2018-01-18T15:41:23.600Z,2.60
2018-01-18T15:43:51.178Z,2.00
2018-01-18T15:46:19.658Z,0.90
2018-01-18T15:48:47.262Z,2.13
2018-01-18T15:51:14.836Z,1.43
2018-01-18T15:53:42.376Z,0.83
2018-01-18T15:56:09.950Z,0.70
2018-01-18T15:58:37.481Z,1.30
2018-01-18T16:01:05.840Z,2.03
2018-01-18T16:03:33.410Z,2.50
2018-01-18T16:06:01.720Z,2.73
2018-01-18T16:08:30.135Z,2.93
2018-01-18T16:10:58.379Z,1.17
2018-01-18T16:13:25.946Z,1.00
2018-01-18T16:15:54.671Z,0.97
2018-01-18T16:18:22.204Z,0.73
2018-01-18T16:20:50.710Z,1.00
2018-01-18T16:23:19.038Z,1.23
2018-01-18T16:25:46.574Z,3.23
2018-01-18T16:28:14.111Z,1.90
2018-01-18T16:30:41.651Z,1.90
2018-01-18T16:33:09.192Z,2.73
2018-01-18T16:35:36.786Z,1.67
2018-01-18T16:38:04.321Z,1.80
2018-01-18T16:40:31.909Z,2.30
2018-01-18T16:42:59.479Z,1.10
2018-01-18T16:45:27.845Z,1.53
2018-01-18T16:47:55.519Z,1.80
2018-01-18T16:50:23.155Z,1.60
2018-01-18T16:52:50.739Z,1.50
2018-01-18T16:55:18.275Z,1.00
2018-01-18T16:57:45.806Z,1.30
2018-01-18T17:00:13.340Z,0.93
2018-01-18T17:02:41.904Z,1.20
2018-01-18T17:05:09.436Z,1.60
2018-01-18T17:07:36.969Z,1.80
2018-01-18T17:10:04.501Z,1.00
2018-01-18T17:12:32.035Z,0.90
2018-01-18T17:14:59.573Z,2.70
2018-01-18T17:17:27.919Z,0.80
2018-01-18T17:19:55.506Z,0.90
2018-01-18T17:22:23.046Z,0.90
2018-01-18T17:24:50.644Z,1.00
2018-01-18T17:27:18.307Z,1.10
2018-01-18T17:29:45.843Z,0.70
2018-01-18T17:32:14.203Z,0.70
2018-01-18T17:34:42.689Z,0.80
2018-01-18T17:37:10.226Z,1.07
2018-01-18T17:39:37.872Z,0.87
2018-01-18T17:42:05.529Z,2.40
2018-01-18T17:44:34.065Z,0.87
2018-01-18T17:47:01.642Z,0.97
2018-01-18T17:49:30.014Z,1.43
2018-01-18T17:51:57.722Z,1.33
2018-01-18T17:54:25.252Z,1.30
2018-01-18T17:56:52.823Z,1.27
2018-01-18T17:59:20.513Z,1.10
2018-01-18T18:01:48.999Z,1.50
2018-01-18T18:04:16.706Z,2.17
2018-01-18T18:06:44.502Z,1.50
2018-01-18T18:09:12.389Z,2.17
2018-01-18T18:11:40.128Z,2.23
2018-01-18T18:14:07.901Z,2.03
2018-01-18T18:16:35.495Z,2.33
2018-01-18T18:19:03.333Z,2.20
2018-01-18T18:21:31.797Z,2.10
2018-01-18T18:23:59.330Z,3.00
2018-01-18T18:26:27.744Z,3.30
2018-01-18T18:28:55.318Z,2.70
2018-01-18T18:31:22.954Z,2.40
2018-01-18T18:33:51.405Z,1.70
2018-01-18T18:36:19.862Z,3.60
2018-01-18T18:38:47.391Z,2.40
2018-01-18T18:41:14.982Z,2.43
2018-01-18T18:43:43.433Z,3.20
2018-01-18T18:46:10.965Z,2.00
2018-01-18T18:48:39.443Z,3.30
2018-01-18T18:51:07.920Z,3.03
2018-01-18T18:53:35.538Z,5.80
2018-01-18T18:56:03.075Z,3.57
2018-01-18T18:58:30.650Z,2.07
2018-01-18T19:00:58.185Z,3.03
2018-01-18T19:03:25.783Z,4.10
2018-01-18T19:05:53.320Z,3.23
2018-01-18T19:08:20.853Z,3.10
2018-01-18T19:10:48.386Z,4.00
2018-01-18T19:13:16.021Z,3.03
2018-01-18T19:15:43.562Z,3.03
2018-01-18T19:18:11.105Z,2.87
2018-01-18T19:20:38.889Z,6.07
2018-01-18T19:23:06.471Z,8.60
2018-01-18T19:25:34.217Z,2.57
2018-01-18T19:28:01.785Z,3.63
2018-01-18T19:30:29.329Z,3.23
2018-01-18T19:32:56.971Z,4.00
2018-01-18T19:35:24.703Z,3.40
2018-01-18T19:37:52.505Z,2.43
2018-01-18T19:40:20.602Z,2.73
2018-01-18T19:42:48.360Z,2.90
2018-01-18T19:45:16.164Z,1.93
2018-01-18T19:47:44.024Z,3.47
2018-01-18T19:50:12.785Z,2.00
2018-01-18T19:52:40.626Z,2.27
2018-01-18T19:55:08.203Z,3.27
2018-01-18T19:57:35.750Z,2.37
2018-01-18T20:00:03.290Z,2.33
2018-01-18T20:02:31.110Z,2.07
2018-01-18T20:04:58.690Z,3.10
2018-01-18T20:07:26.224Z,2.50
2018-01-18T20:09:53.754Z,2.77
2018-01-18T20:12:22.186Z,3.80
2018-01-18T20:14:50.634Z,2.60
2018-01-18T20:17:18.254Z,1.80
2018-01-18T20:19:45.903Z,2.10
2018-01-18T20:22:13.754Z,1.70
2018-01-18T20:24:42.140Z,2.10
2018-01-18T20:27:10.908Z,1.30
2018-01-18T20:29:39.340Z,5.37
2018-01-18T20:32:06.873Z,2.10
2018-01-18T20:34:34.408Z,2.03
2018-01-18T20:37:01.947Z,1.97
2018-01-18T20:39:29.482Z,1.83
2018-01-18T20:41:57.946Z,1.77
2018-01-18T20:44:25.525Z,1.73
2018-01-18T20:46:53.053Z,1.90
2018-01-18T20:49:20.595Z,4.50
2018-01-18T20:51:48.125Z,4.13
2018-01-18T20:54:15.663Z,1.60
2018-01-18T20:56:44.096Z,1.30
2018-01-18T20:59:12.537Z,1.70
2018-01-18T21:01:40.111Z,4.70
2018-01-18T21:04:09.967Z,2.83
2018-01-18T21:06:37.594Z,4.70
2018-01-18T21:09:05.129Z,2.13
2018-01-18T21:11:32.657Z,5.97
2018-01-18T21:14:00.225Z,2.00
2018-01-18T21:16:27.766Z,2.97
2018-01-18T21:18:55.294Z,2.67
2018-01-18T21:21:22.837Z,2.30
2018-01-18T21:23:50.365Z,1.93
2018-01-18T21:26:17.914Z,1.70
2018-01-18T21:28:45.451Z,3.03
2018-01-18T21:31:13.792Z,4.40
2018-01-18T21:33:41.328Z,4.90
2018-01-18T21:36:09.662Z,2.43
2018-01-18T21:38:38.042Z,4.90
2018-01-18T21:41:06.398Z,2.43
2018-01-18T21:43:34.791Z,13.87
2018-01-18T21:46:02.322Z,3.47
2018-01-18T21:48:29.851Z,2.33
2018-01-18T21:50:58.178Z,2.47
2018-01-18T21:53:26.500Z,2.63
2018-01-18T21:55:54.039Z,2.00
2018-01-18T21:58:21.570Z,2.70
2018-01-18T22:00:49.109Z,4.73
2018-01-18T22:03:16.645Z,1.70
2018-01-18T22:05:44.177Z,1.90
2018-01-18T22:08:12.655Z,5.97
2018-01-18T22:10:40.196Z,3.13
2018-01-18T22:13:07.785Z,4.13
2018-01-18T22:15:35.329Z,4.83
2018-01-18T22:18:02.873Z,4.57
2018-01-18T22:20:31.210Z,5.80
2018-01-18T22:22:58.750Z,1.90
2018-01-18T22:25:26.320Z,4.93
2018-01-18T22:27:53.854Z,3.13
2018-01-18T22:30:21.427Z,2.73
2018-01-18T22:32:48.957Z,4.63
2018-01-18T22:35:16.495Z,4.30
2018-01-18T22:37:44.078Z,3.13
2018-01-18T22:40:11.608Z,2.43
2018-01-18T22:42:39.142Z,4.80
2018-01-18T22:45:06.678Z,4.87
2018-01-18T22:47:34.214Z,3.67
2018-01-18T22:50:01.759Z,7.70
2018-01-18T22:52:29.850Z,3.67
2018-01-18T22:54:58.205Z,4.60
2018-01-18T22:57:25.853Z,3.53
2018-01-18T22:59:53.386Z,4.80
2018-01-18T23:02:20.914Z,5.20
2018-01-18T23:04:48.445Z,5.63
2018-01-18T23:07:16.765Z,3.53
2018-01-18T23:09:44.297Z,4.00
2018-01-18T23:12:12.620Z,3.80
2018-01-18T23:14:40.186Z,4.17
2018-01-18T23:17:07.721Z,4.30
2018-01-18T23:19:35.307Z,5.07
2018-01-18T23:22:02.841Z,6.17
2018-01-18T23:24:30.377Z,4.07
2018-01-18T23:26:57.910Z,5.70
2018-01-18T23:29:25.442Z,4.07
2018-01-18T23:31:53.092Z,6.83
2018-01-18T23:34:21.559Z,7.90
2018-01-18T23:36:49.099Z,4.57
2018-01-18T23:39:16.639Z,7.07
2018-01-18T23:41:44.169Z,7.03
2018-01-18T23:44:11.703Z,8.37
2018-01-18T23:46:39.239Z,6.20
2018-01-18T23:49:06.781Z,9.00
2018-01-18T23:51:34.309Z,5.20
2018-01-18T23:54:01.846Z,6.13
2018-01-18T23:56:29.379Z,6.20
2018-01-18T23:58:56.913Z,5.50
